Time;durP1;ratioP1;P1;durP2;ratioP2;P2;SDS_P1;SDS_P2;PMS_P1;PMS_P2;Temp;Humidity;BMP_temperature;BMP_pressure;BME280_temperature;BME280_humidity;BME280_pressure;Samples;Min_cycle;Max_cycle;Signal;HPM_P1;HPM_P2
2023/07/07 06:43:47;;;;;;;;;;;;;;;24.62;100.00;100107.48;1756722;79;20455;-75
2023/07/07 06:46:14;;;;;;;;;;;;;;;24.52;100.00;100115.18;1758787;80;20184;-73
2023/07/07 06:48:41;;;;;;;;;;;;;;;24.50;100.00;100105.20;1760392;79;20134;-71
2023/07/07 06:51:10;;;;;;;;;;;;;;;24.51;100.00;100102.88;1754613;80;20129;-72
2023/07/07 06:53:36;;;;;;;;;;;;;;;24.50;100.00;100089.73;1725018;81;20190;-71
2023/07/07 06:56:03;;;;;;;;;;;;;;;24.46;100.00;100097.23;1715480;83;20175;-72
2023/07/07 06:58:33;;;;;;;;;;;;;;;24.43;100.00;100088.77;1717859;81;20178;-71
2023/07/07 07:00:59;;;;;;;;;;;;;;;24.35;100.00;100080.84;1712214;82;20132;-71
2023/07/07 07:03:27;;;;;;;;;;;;;;;24.26;100.00;100064.91;1724210;83;20144;-72
2023/07/07 07:05:54;;;;;;;;;;;;;;;24.15;100.00;100051.13;1704437;82;20197;-72
2023/07/07 07:08:20;;;;;;;;;;;;;;;24.05;100.00;100054.48;1734610;82;20106;-73
2023/07/07 07:15:49;;;;;;;;;;;;;;;24.32;100.00;100075.37;1744697;79;20493;-74
2023/07/07 07:18:16;;;;;;;;;;;;;;;24.56;100.00;100080.55;1748632;79;20127;-74
2023/07/07 07:20:43;;;;;;;;;;;;;;;24.87;100.00;100083.18;1776842;80;20152;-74
2023/07/07 07:23:09;;;;;;;;;;;;;;;25.29;100.00;100079.22;1782161;79;20095;-72
2023/07/07 07:25:45;;;;;;;;;;;;;;;25.88;100.00;100082.02;1774452;79;20156;-73
2023/07/07 07:28:15;;;;;;;;;;;;;;;26.38;100.00;100089.79;1751493;79;20155;-77
2023/07/07 07:30:43;;;;;;;;;;;;;;;26.67;100.00;100106.24;1773152;80;20163;-76
2023/07/07 07:33:13;;;;;;;;;;;;;;;26.87;100.00;100112.11;1728893;81;20372;-80
2023/07/07 07:35:41;;;;;;;;;;;;;;;27.22;100.00;100115.77;1737654;79;20133;-74
2023/07/07 07:38:08;;;;;;;;;;;;;;;27.79;100.00;100110.80;1755254;78;20110;-72
2023/07/07 07:40:35;;;;;;;;;;;;;;;28.31;100.00;100110.82;1748104;80;20149;-70
2023/07/07 07:43:01;;;;;;;;;;;;;;;28.64;100.00;100107.44;1736056;80;20140;-75
2023/07/07 07:45:29;;;;;;;;;;;;;;;28.67;98.99;100110.53;1700527;81;20452;-78
2023/07/07 07:49:09;;;;;;;;;;;;;;;;;;;;;
2023/07/07 07:51:06;;;;;;;;;;;;;;;28.58;96.03;100116.27;1698467;82;20140;-78
2023/07/07 07:53:33;;;;;;;;;;;;;;;28.44;96.38;100120.23;1734944;81;20195;-75
2023/07/07 08:03:33;;;;;;;;;;;;;;;28.49;93.54;100117.78;1739087;80;20453;-78
2023/07/07 08:06:00;;;;;;;;;;;;;;;28.46;95.04;100116.84;1741017;81;20610;-74
2023/07/07 08:08:27;;;;;;;;;;;;;;;28.72;97.80;100123.34;1731927;80;20152;-70
2023/07/07 08:10:55;;;;;;;;;;;;;;;29.03;95.74;100130.34;1721180;82;20401;-77
2023/07/07 08:13:21;;;;;;;;;;;;;;;29.09;91.34;100138.09;1747626;80;20112;-77
2023/07/07 08:15:50;;;;;;;;;;;;;;;28.88;89.31;100133.70;1743981;80;20091;-73
2023/07/07 08:18:17;;;;;;;;;;;;;;;28.61;90.45;100133.28;1757564;80;20190;-76
2023/07/07 08:20:51;;;;;;;;;;;;;;;28.47;93.24;100137.76;1743020;80;20130;-78
2023/07/07 08:23:24;;;;;;;;;;;;;;;28.57;94.73;100138.22;1731737;80;20150;-75
2023/07/07 08:25:52;;;;;;;;;;;;;;;28.71;94.75;100137.77;1729016;81;20173;-75
2023/07/07 08:28:19;;;;;;;;;;;;;;;28.87;95.55;100140.91;1742686;80;20158;-74
2023/07/07 08:30:46;;;;;;;;;;;;;;;29.12;94.70;100137.17;1736659;80;20175;-73
2023/07/07 08:33:12;;;;;;;;;;;;;;;29.42;93.60;100134.95;1737491;79;20198;-71
2023/07/07 08:35:42;;;;;;;;;;;;;;;29.76;93.23;100132.55;1759448;80;20209;-72
2023/07/07 08:38:10;;;;;;;;;;;;;;;30.07;91.36;100136.44;1749676;79;20231;-70
2023/07/07 08:40:41;;;;;;;;;;;;;;;30.09;86.73;100146.46;1746432;79;20108;-76
2023/07/07 08:43:09;;;;;;;;;;;;;;;29.82;85.88;100151.03;1732097;79;20134;-74
2023/07/07 08:45:36;;;;;;;;;;;;;;;29.55;87.80;100155.60;1740279;81;20522;-78
2023/07/07 08:48:18;;;;;;;;;;;;;;;29.35;89.05;100161.42;1744421;81;20103;-76
2023/07/07 08:50:54;;;;;;;;;;;;;;;29.18;89.43;100163.69;1715329;81;20128;-76
2023/07/07 08:53:44;;;;;;;;;;;;;;;28.99;89.06;100161.27;1734740;81;20217;-77
2023/07/07 08:56:20;;;;;;;;;;;;;;;28.81;90.02;100160.48;1741185;80;20135;-73
2023/07/07 08:59:01;;;;;;;;;;;;;;;28.74;90.84;100159.63;1740012;79;20393;-75
2023/07/07 09:01:51;;;;;;;;;;;;;;;28.78;89.36;100158.20;1728563;79;20172;-73
2023/07/07 09:04:43;;;;;;;;;;;;;;;28.86;90.55;100162.05;1740157;80;20162;-73
2023/07/07 09:07:19;;;;;;;;;;;;;;;29.20;90.57;100157.58;1753015;80;20100;-72
2023/07/07 09:09:53;;;;;;;;;;;;;;;29.51;88.81;100153.02;1741846;80;20392;-72
2023/07/07 09:12:36;;;;;;;;;;;;;;;29.64;85.59;100162.39;1742319;80;20207;-74
2023/07/07 09:15:04;;;;;;;;;;;;;;;29.63;84.55;100155.88;1730245;80;20099;-75
2023/07/07 09:17:37;;;;;;;;;;;;;;;29.64;83.39;100165.59;1720761;80;20202;-72
2023/07/07 09:20:04;;;;;;;;;;;;;;;29.49;83.24;100169.32;1733509;80;20199;-73
2023/07/07 09:22:35;;;;;;;;;;;;;;;29.41;85.12;100176.22;1746308;80;20393;-73
2023/07/07 09:25:09;;;;;;;;;;;;;;;29.35;82.57;100184.23;1750898;80;20112;-73
2023/07/07 09:27:41;;;;;;;;;;;;;;;29.09;81.89;100181.00;1727799;81;20124;-74
2023/07/07 09:30:28;;;;;;;;;;;;;;;28.87;83.83;100182.98;1749078;79;20432;-70
2023/07/07 09:32:55;;;;;;;;;;;;;;;28.72;85.62;100187.66;1752643;79;20158;-74
2023/07/07 09:35:23;;;;;;;;;;;;;;;28.74;87.99;100182.41;1740591;81;20400;-73
2023/07/07 09:38:21;;;;;;;;;;;;;;;28.90;86.57;100184.43;1756966;80;20097;-76
2023/07/07 09:49:26;;;;;;;;;;;;;;;29.22;86.39;100190.39;1742325;80;20210;-72
2023/07/07 09:54:53;;;;;;;;;;;;;;;29.33;83.42;100189.80;1756184;80;20138;-73
2023/07/07 09:57:26;;;;;;;;;;;;;;;29.23;83.12;100200.09;1706617;83;20451;-74
2023/07/07 09:59:53;;;;;;;;;;;;;;;29.07;83.35;100201.30;1714086;81;20156;-72
